Time;durP1;ratioP1;P1;durP2;ratioP2;P2;SDS_P1;SDS_P2;PMS_P1;PMS_P2;Temp;Humidity;BMP_temperature;BMP_pressure;BME280_temperature;BME280_humidity;BME280_pressure;Samples;Min_cycle;Max_cycle;Signal;HPM_P1;HPM_P2
2022/07/16 00:02:40;;;;;;;8.83;6.37;;;10.50;99.90;;;;;;4945330;29;20034;-81
2022/07/16 00:05:08;;;;;;;11.02;7.63;;;11.10;99.90;;;;;;4950856;29;20402;-80
2022/07/16 00:07:35;;;;;;;9.55;6.90;;;11.80;99.90;;;;;;4950916;28;20035;-80
2022/07/16 00:10:04;;;;;;;11.73;7.70;;;12.30;99.90;;;;;;4944952;29;20089;-77
2022/07/16 00:12:31;;;;;;;9.80;5.93;;;12.50;99.90;;;;;;4940673;28;20083;-77
2022/07/16 00:14:59;;;;;;;8.10;5.30;;;12.80;99.90;;;;;;4949334;28;20043;-78
2022/07/16 00:17:26;;;;;;;5.22;4.28;;;13.60;99.90;;;;;;4942881;28;20493;-77
2022/07/16 00:19:54;;;;;;;3.80;2.80;;;14.00;97.50;;;;;;4944727;28;20554;-78
2022/07/16 00:22:21;;;;;;;4.80;3.83;;;14.10;97.00;;;;;;4946199;28;20110;-77
2022/07/16 00:24:49;;;;;;;3.65;3.13;;;14.10;98.10;;;;;;4938138;28;20079;-78
2022/07/16 00:27:16;;;;;;;4.78;2.75;;;14.00;96.60;;;;;;4942838;29;20086;-77
2022/07/16 00:29:44;;;;;;;3.08;2.38;;;14.00;96.00;;;;;;4952607;29;20078;-80
2022/07/16 00:32:11;;;;;;;4.57;2.83;;;14.30;95.10;;;;;;4946106;28;20035;-78
2022/07/16 00:34:38;;;;;;;3.92;2.53;;;14.20;95.30;;;;;;4947247;28;20146;-77
2022/07/16 00:37:06;;;;;;;4.07;2.83;;;14.00;95.80;;;;;;4945132;28;20034;-79
2022/07/16 00:39:33;;;;;;;3.55;2.67;;;13.80;96.00;;;;;;4946492;29;20035;-77
2022/07/16 00:42:01;;;;;;;4.53;3.00;;;13.60;95.70;;;;;;4943265;28;20053;-78
2022/07/16 00:44:29;;;;;;;6.40;3.28;;;13.70;97.10;;;;;;4943079;28;20020;-79
2022/07/16 00:46:56;;;;;;;4.05;3.15;;;13.90;96.10;;;;;;4941723;29;20111;-82
2022/07/16 00:49:23;;;;;;;6.10;3.53;;;14.00;97.10;;;;;;4941950;28;20023;-78
2022/07/16 00:51:52;;;;;;;6.00;3.80;;;13.70;96.40;;;;;;4946844;28;20043;-79
2022/07/16 00:54:21;;;;;;;7.93;4.70;;;13.30;97.30;;;;;;4943432;29;20396;-76
2022/07/16 00:56:49;;;;;;;5.15;3.65;;;13.20;99.00;;;;;;4943773;28;20398;-78
2022/07/16 00:59:16;;;;;;;5.78;4.50;;;13.60;97.50;;;;;;4944461;28;20057;-77
2022/07/16 01:01:44;;;;;;;5.93;4.80;;;13.90;97.40;;;;;;4945732;29;20104;-78
2022/07/16 01:04:11;;;;;;;7.43;4.43;;;14.60;96.90;;;;;;4942595;29;20035;-79
2022/07/16 01:06:39;;;;;;;5.78;5.20;;;15.20;95.40;;;;;;4943750;29;20039;-78
2022/07/16 01:09:07;;;;;;;5.15;4.13;;;15.30;95.30;;;;;;4943532;29;20449;-77
2022/07/16 01:11:35;;;;;;;8.20;4.35;;;15.40;95.30;;;;;;4942467;28;21678;-76
2022/07/16 01:14:03;;;;;;;5.50;3.95;;;15.40;94.80;;;;;;4947271;29;20031;-76
2022/07/16 01:16:31;;;;;;;4.40;3.35;;;15.30;95.00;;;;;;4943771;29;20144;-76
2022/07/16 01:18:58;;;;;;;5.20;3.08;;;14.70;95.00;;;;;;4941674;28;20054;-77
2022/07/16 01:21:26;;;;;;;3.83;2.95;;;14.40;95.20;;;;;;4941795;29;20054;-79
2022/07/16 01:23:53;;;;;;;6.65;4.65;;;13.80;95.70;;;;;;4944457;29;20035;-77
2022/07/16 01:26:21;;;;;;;7.88;4.05;;;13.60;97.30;;;;;;4938895;29;20031;-76
2022/07/16 01:28:48;;;;;;;6.68;3.55;;;14.00;97.40;;;;;;4948134;29;20081;-78
2022/07/16 01:31:15;;;;;;;4.53;3.25;;;15.30;96.20;;;;;;4945124;29;20031;-76
2022/07/16 01:33:43;;;;;;;5.43;2.90;;;15.90;95.00;;;;;;4943897;28;20086;-78
2022/07/16 01:36:15;;;;;;;5.15;3.47;;;16.70;94.20;;;;;;4942190;28;20112;-78
2022/07/16 01:38:45;;;;;;;3.67;2.22;;;17.30;93.20;;;;;;4937692;29;20035;-78
2022/07/16 01:41:13;;;;;;;3.17;2.03;;;17.80;92.50;;;;;;4949836;29;20632;-78
2022/07/16 01:43:42;;;;;;;4.57;2.67;;;17.80;91.30;;;;;;4946017;28;20426;-78
2022/07/16 01:46:09;;;;;;;2.78;2.13;;;18.20;92.10;;;;;;4950714;28;20035;-77
2022/07/16 01:48:37;;;;;;;3.08;2.22;;;18.80;91.30;;;;;;4949791;29;20489;-76
2022/07/16 01:51:04;;;;;;;1.85;1.67;;;19.10;90.50;;;;;;4945663;29;20050;-78
2022/07/16 01:53:32;;;;;;;2.67;1.75;;;19.10;89.70;;;;;;4941083;28;20058;-77
2022/07/16 01:56:00;;;;;;;2.00;1.27;;;19.20;88.40;;;;;;4941388;28;20474;-76
2022/07/16 01:58:28;;;;;;;1.75;0.93;;;19.10;87.40;;;;;;4940790;28;20039;-77
2022/07/16 02:00:55;;;;;;;1.65;1.10;;;19.20;88.20;;;;;;4940653;28;21912;-77
2022/07/16 02:03:23;;;;;;;2.83;1.52;;;19.30;88.00;;;;;;4942715;28;20327;-77
2022/07/16 02:05:50;;;;;;;3.15;1.30;;;19.50;86.40;;;;;;4941948;28;20054;-79
2022/07/16 02:08:18;;;;;;;2.85;1.23;;;19.70;84.60;;;;;;4941756;29;20038;-75
2022/07/16 02:10:45;;;;;;;1.83;1.10;;;19.60;87.10;;;;;;4942945;28;20038;-77
2022/07/16 02:13:12;;;;;;;1.85;1.40;;;19.60;87.70;;;;;;4945178;29;20648;-76
2022/07/16 02:15:40;;;;;;;1.98;0.90;;;19.40;87.00;;;;;;4945641;29;20548;-77
2022/07/16 02:18:07;;;;;;;2.53;1.00;;;19.40;88.50;;;;;;4944712;29;20466;-76
2022/07/16 02:20:35;;;;;;;1.50;1.00;;;19.00;87.00;;;;;;4950549;29;20066;-75
2022/07/16 02:23:02;;;;;;;1.75;1.08;;;18.60;87.00;;;;;;4944593;29;20019;-75
2022/07/16 02:25:29;;;;;;;1.35;1.10;;;18.10;86.70;;;;;;4946694;28;20023;-75
2022/07/16 02:28:06;;;;;;;1.30;0.90;;;17.40;87.70;;;;;;4945024;29;20042;-76
2022/07/16 02:30:41;;;;;;;2.33;1.13;;;17.10;88.40;;;;;;4945255;29;20154;-76
2022/07/16 02:33:10;;;;;;;3.17;1.13;;;16.80;89.60;;;;;;4944784;29;20666;-77
2022/07/16 02:35:38;;;;;;;1.55;0.80;;;16.30;90.00;;;;;;4945796;29;20058;-76
2022/07/16 02:38:07;;;;;;;1.75;0.70;;;15.90;90.50;;;;;;4947354;29;20027;-76
2022/07/16 02:40:35;;;;;;;1.67;1.10;;;15.80;90.20;;;;;;4946643;28;20489;-75
2022/07/16 02:43:04;;;;;;;3.38;0.95;;;16.20;90.90;;;;;;4942010;29;20103;-74
2022/07/16 02:45:36;;;;;;;1.65;0.93;;;16.60;90.10;;;;;;4946362;28;20069;-78
2022/07/16 02:48:05;;;;;;;1.45;0.88;;;16.60;90.70;;;;;;4944921;29;20036;-78
2022/07/16 02:50:32;;;;;;;1.20;0.98;;;17.00;90.60;;;;;;4945490;28;20485;-78
2022/07/16 02:53:00;;;;;;;1.98;0.93;;;17.50;90.60;;;;;;4949300;28;20031;-77
2022/07/16 02:55:27;;;;;;;1.92;0.88;;;17.40;90.40;;;;;;4949558;28;20042;-76
2022/07/16 02:57:55;;;;;;;2.15;1.00;;;17.20;90.00;;;;;;4944018;29;20028;-74
2022/07/16 03:00:23;;;;;;;1.17;0.63;;;16.90;89.30;;;;;;4945095;28;20042;-74
2022/07/16 03:02:50;;;;;;;2.28;1.08;;;16.60;90.30;;;;;;4942863;29;20058;-76
2022/07/16 03:05:19;;;;;;;3.50;1.55;;;16.50;90.80;;;;;;4945610;29;20085;-76
2022/07/16 03:07:46;;;;;;;0.95;0.65;;;16.30;90.10;;;;;;4943209;29;20035;-74
2022/07/16 03:10:14;;;;;;;1.80;0.93;;;16.00;91.20;;;;;;4944798;29;20054;-75
2022/07/16 03:12:42;;;;;;;2.30;1.20;;;15.90;91.20;;;;;;4942638;29;20043;-74
2022/07/16 03:15:11;;;;;;;1.58;0.90;;;16.00;91.40;;;;;;4944633;29;20395;-74
2022/07/16 03:17:40;;;;;;;1.77;1.30;;;16.20;91.60;;;;;;4941974;29;20059;-73
2022/07/16 03:20:08;;;;;;;0.90;0.50;;;16.20;91.70;;;;;;4944270;29;20032;-74
2022/07/16 03:22:36;;;;;;;1.48;0.77;;;16.30;91.10;;;;;;4943646;28;20082;-77
2022/07/16 03:25:04;;;;;;;2.67;0.88;;;16.40;91.80;;;;;;4946329;29;20493;-73
2022/07/16 03:27:31;;;;;;;1.27;0.70;;;16.40;91.30;;;;;;4943537;29;20038;-74
2022/07/16 03:29:58;;;;;;;1.30;0.68;;;16.50;91.30;;;;;;4944035;28;20580;-74
2022/07/16 03:32:26;;;;;;;1.83;0.73;;;16.70;90.60;;;;;;4943524;29;20466;-74
2022/07/16 03:34:53;;;;;;;0.90;0.65;;;16.50;91.10;;;;;;4943614;29;20047;-75
2022/07/16 03:37:21;;;;;;;0.95;0.50;;;16.20;90.90;;;;;;4945348;29;20058;-75
2022/07/16 03:39:48;;;;;;;0.98;0.52;;;15.80;91.50;;;;;;4946833;29;20474;-74
2022/07/16 03:42:15;;;;;;;0.60;0.40;;;15.60;92.40;;;;;;4946264;29;20527;-75
2022/07/16 03:44:43;;;;;;;1.38;1.00;;;15.40;92.10;;;;;;4945884;29;20066;-75
2022/07/16 03:47:10;;;;;;;1.95;0.73;;;15.30;92.40;;;;;;4945230;29;21996;-74
2022/07/16 03:49:38;;;;;;;1.38;0.55;;;15.30;92.80;;;;;;4944865;29;20023;-75
2022/07/16 03:52:05;;;;;;;2.15;0.68;;;15.30;92.90;;;;;;4945174;29;20046;-74
2022/07/16 03:54:32;;;;;;;1.13;0.77;;;15.20;93.20;;;;;;4944443;29;20043;-73
2022/07/16 03:57:00;;;;;;;1.02;0.60;;;15.20;93.70;;;;;;4944229;29;20027;-74
2022/07/16 03:59:27;;;;;;;1.13;0.90;;;15.20;93.70;;;;;;4944932;29;20027;-75
2022/07/16 04:01:55;;;;;;;1.23;0.70;;;15.30;93.50;;;;;;4941529;28;20020;-74
2022/07/16 04:04:22;;;;;;;1.17;0.65;;;15.20;93.70;;;;;;4945302;29;20051;-75
2022/07/16 04:06:49;;;;;;;0.98;0.60;;;15.30;93.70;;;;;;4948681;29;20027;-72
2022/07/16 04:09:17;;;;;;;1.45;0.60;;;15.30;93.90;;;;;;4938862;28;20036;-74
2022/07/16 04:11:44;;;;;;;2.85;0.50;;;15.40;93.90;;;;;;4949340;29;20118;-74
2022/07/16 04:14:12;;;;;;;2.35;0.80;;;15.30;93.80;;;;;;4946994;29;20035;-74
2022/07/16 04:16:39;;;;;;;1.55;1.08;;;15.40;93.60;;;;;;4948496;28;20374;-75
2022/07/16 04:19:06;;;;;;;4.15;0.80;;;15.30;94.20;;;;;;4943501;29;20529;-75
2022/07/16 04:21:34;;;;;;;0.85;0.70;;;15.30;94.40;;;;;;4944923;29;20058;-76
2022/07/16 04:24:01;;;;;;;1.95;0.80;;;15.30;94.30;;;;;;4945387;29;20076;-76
2022/07/16 04:26:29;;;;;;;1.60;0.70;;;15.20;94.20;;;;;;4943612;29;20386;-76
2022/07/16 04:28:56;;;;;;;2.15;0.70;;;15.20;94.20;;;;;;4944355;28;20103;-75
2022/07/16 04:31:24;;;;;;;0.88;0.40;;;15.20;93.90;;;;;;4944028;29;20093;-75
2022/07/16 04:33:52;;;;;;;2.00;0.60;;;15.20;94.40;;;;;;4942516;28;20446;-75
2022/07/16 04:36:19;;;;;;;2.35;0.90;;;15.20;94.50;;;;;;4946479;29;20061;-75
2022/07/16 04:38:46;;;;;;;2.08;0.65;;;15.30;94.30;;;;;;4949696;29;20053;-76
2022/07/16 04:41:14;;;;;;;0.93;0.50;;;15.40;94.20;;;;;;4941480;29;20098;-76
2022/07/16 04:43:41;;;;;;;2.25;0.60;;;15.40;94.00;;;;;;4943973;28;20026;-74
2022/07/16 04:46:09;;;;;;;1.88;0.70;;;15.40;94.10;;;;;;4943280;29;20118;-75
2022/07/16 04:48:36;;;;;;;1.15;0.60;;;15.30;94.10;;;;;;4943587;29;20098;-75
2022/07/16 04:51:03;;;;;;;1.70;0.77;;;15.30;94.40;;;;;;4942344;29;20027;-75
2022/07/16 04:53:31;;;;;;;0.93;0.50;;;15.30;94.50;;;;;;4943042;29;20050;-75
2022/07/16 04:55:58;;;;;;;0.82;0.50;;;15.20;94.50;;;;;;4941473;29;20050;-75
2022/07/16 04:58:26;;;;;;;1.75;0.65;;;15.10;94.70;;;;;;4942000;29;20019;-75
2022/07/16 05:00:53;;;;;;;2.67;0.90;;;15.10;94.80;;;;;;4946138;29;20115;-74
2022/07/16 05:03:23;;;;;;;1.85;1.20;;;15.00;95.00;;;;;;4943480;29;20119;-74
2022/07/16 05:05:50;;;;;;;2.10;1.40;;;15.00;95.40;;;;;;4941809;29;20126;-75
2022/07/16 05:08:18;;;;;;;3.97;2.00;;;14.90;95.70;;;;;;4943532;29;20102;-76
2022/07/16 05:10:45;;;;;;;2.58;1.73;;;14.80;96.00;;;;;;4942627;29;20031;-75
2022/07/16 05:13:13;;;;;;;2.95;1.52;;;14.80;96.30;;;;;;4947837;28;20402;-75
2022/07/16 05:15:40;;;;;;;2.20;1.42;;;14.70;96.40;;;;;;4943155;28;20050;-76
2022/07/16 05:18:11;;;;;;;6.20;2.35;;;14.70;96.60;;;;;;4942519;29;20038;-75
2022/07/16 05:20:38;;;;;;;4.93;2.50;;;14.70;96.80;;;;;;4941216;29;20055;-76
2022/07/16 05:23:06;;;;;;;5.30;2.50;;;14.60;96.90;;;;;;4942444;29;20055;-75
2022/07/16 05:25:33;;;;;;;4.97;2.60;;;14.50;96.90;;;;;;4941046;29;20433;-77
2022/07/16 05:28:00;;;;;;;4.60;3.05;;;14.40;96.80;;;;;;4946980;28;20027;-76
2022/07/16 05:30:28;;;;;;;3.72;3.08;;;14.30;96.60;;;;;;4950867;29;20407;-76
2022/07/16 05:32:55;;;;;;;3.97;2.75;;;14.20;97.00;;;;;;4949880;28;20034;-76
2022/07/16 05:35:23;;;;;;;4.53;2.10;;;14.10;97.40;;;;;;4951204;29;20047;-76
2022/07/16 05:37:50;;;;;;;4.35;2.72;;;14.00;97.70;;;;;;4948583;29;20032;-76
2022/07/16 05:40:18;;;;;;;4.15;2.28;;;13.90;97.80;;;;;;4950739;29;20545;-76
2022/07/16 05:42:47;;;;;;;2.38;1.60;;;13.80;97.80;;;;;;4950222;29;20031;-76
2022/07/16 05:45:14;;;;;;;2.90;2.15;;;13.80;98.20;;;;;;4953501;28;20792;-76
2022/07/16 05:47:42;;;;;;;4.05;2.08;;;13.70;98.20;;;;;;4937347;29;20027;-76
2022/07/16 05:50:10;;;;;;;2.38;2.17;;;13.70;98.60;;;;;;4952166;29;20098;-76
2022/07/16 05:52:38;;;;;;;4.75;2.85;;;13.60;98.70;;;;;;4942907;29;20028;-77
2022/07/16 05:55:06;;;;;;;4.38;3.13;;;13.50;98.70;;;;;;4955599;28;20481;-76
2022/07/16 05:57:35;;;;;;;4.88;3.55;;;13.60;98.90;;;;;;4948590;28;20062;-76
2022/07/16 06:00:03;;;;;;;5.85;3.35;;;13.60;98.80;;;;;;4951212;28;20071;-73
2022/07/16 06:02:31;;;;;;;6.00;3.83;;;13.50;98.80;;;;;;4953033;29;21199;-75
2022/07/16 06:04:58;;;;;;;5.45;4.40;;;13.50;99.10;;;;;;4954909;29;20132;-74
2022/07/16 06:07:25;;;;;;;8.77;4.85;;;13.50;99.10;;;;;;4938802;29;20031;-75
2022/07/16 06:09:53;;;;;;;5.25;3.80;;;13.40;99.90;;;;;;4949864;29;20027;-74
2022/07/16 06:12:20;;;;;;;20.77;14.10;;;13.40;99.90;;;;;;4953199;29;20051;-74
2022/07/16 06:14:48;;;;;;;10.48;8.15;;;13.30;99.90;;;;;;4955021;28;20042;-75
2022/07/16 06:17:15;;;;;;;6.53;5.30;;;13.30;99.90;;;;;;4953330;29;20103;-75
2022/07/16 06:19:43;;;;;;;9.65;7.65;;;13.30;99.90;;;;;;4953493;29;20294;-75
2022/07/16 06:22:12;;;;;;;11.27;6.82;;;13.20;99.90;;;;;;4952544;28;20043;-74
2022/07/16 06:24:39;;;;;;;6.75;5.32;;;13.10;99.90;;;;;;4954060;29;20062;-75
2022/07/16 06:27:06;;;;;;;5.75;4.40;;;13.10;99.90;;;;;;4954226;29;20031;-74
2022/07/16 06:29:34;;;;;;;4.80;3.42;;;13.00;99.90;;;;;;4953496;29;20032;-75
2022/07/16 06:32:01;;;;;;;5.22;3.63;;;12.90;99.90;;;;;;4953830;29;20035;-74
2022/07/16 06:34:29;;;;;;;3.83;2.72;;;12.90;99.90;;;;;;4949216;29;20047;-74
2022/07/16 06:36:56;;;;;;;5.65;3.40;;;12.90;99.90;;;;;;4946381;28;20479;-75
2022/07/16 06:39:23;;;;;;;6.00;3.50;;;12.90;99.90;;;;;;4941842;29;20422;-75
2022/07/16 06:41:51;;;;;;;5.68;4.13;;;12.80;99.90;;;;;;4949196;29;20028;-76
2022/07/16 06:44:19;;;;;;;6.35;4.22;;;12.80;99.90;;;;;;4952591;29;20057;-74
2022/07/16 06:46:46;;;;;;;4.95;3.85;;;12.70;99.90;;;;;;4951410;28;20094;-76
2022/07/16 06:49:14;;;;;;;7.18;6.18;;;12.70;99.90;;;;;;4951102;28;20102;-76
2022/07/16 06:51:42;;;;;;;6.43;5.35;;;12.60;99.90;;;;;;4934180;28;20067;-75
2022/07/16 06:54:09;;;;;;;8.45;4.88;;;12.60;99.90;;;;;;4953448;28;20523;-75
2022/07/16 06:56:37;;;;;;;6.22;5.38;;;12.50;99.90;;;;;;4948963;28;20063;-75
2022/07/16 06:59:04;;;;;;;7.60;4.13;;;12.50;99.90;;;;;;4938860;29;20032;-76
2022/07/16 07:01:32;;;;;;;8.65;4.50;;;12.40;99.90;;;;;;4944084;29;20461;-76
2022/07/16 07:03:59;;;;;;;7.72;3.97;;;12.40;99.90;;;;;;4946331;29;20027;-76
2022/07/16 07:06:27;;;;;;;6.25;4.07;;;12.30;99.90;;;;;;4944591;29;20122;-75
2022/07/16 07:08:54;;;;;;;4.47;3.15;;;12.20;99.90;;;;;;4948866;29;20102;-75
2022/07/16 07:11:23;;;;;;;6.28;3.22;;;12.10;99.90;;;;;;4946058;28;20057;-75
2022/07/16 07:13:50;;;;;;;4.88;3.65;;;12.10;99.90;;;;;;4949457;29;20024;-74
2022/07/16 07:16:18;;;;;;;7.57;5.03;;;12.00;99.90;;;;;;4951294;29;20474;-78
2022/07/16 07:18:46;;;;;;;7.05;5.30;;;11.90;99.90;;;;;;4951975;28;20023;-79
2022/07/16 07:21:13;;;;;;;7.95;4.93;;;11.90;99.90;;;;;;4944048;29;20504;-79
2022/07/16 07:23:41;;;;;;;9.35;6.05;;;11.80;99.90;;;;;;4945276;29;20078;-78
2022/07/16 07:26:08;;;;;;;10.23;5.95;;;11.70;99.90;;;;;;4944168;29;20379;-79
2022/07/16 07:28:35;;;;;;;8.45;5.35;;;11.60;99.90;;;;;;4943935;28;20023;-79
2022/07/16 07:31:03;;;;;;;8.80;5.22;;;11.60;99.90;;;;;;4945009;28;20035;-79
2022/07/16 07:33:30;;;;;;;6.80;4.82;;;11.50;99.90;;;;;;4951390;28;20387;-79
2022/07/16 07:35:58;;;;;;;9.80;5.10;;;11.50;99.90;;;;;;4952841;28;20043;-80
2022/07/16 07:38:25;;;;;;;7.05;4.88;;;11.50;99.90;;;;;;4945854;29;20430;-80
2022/07/16 07:40:52;;;;;;;6.15;4.50;;;11.40;99.90;;;;;;4952138;29;20194;-80
2022/07/16 07:43:20;;;;;;;8.23;5.32;;;11.40;99.90;;;;;;4952868;29;20516;-79
2022/07/16 07:45:47;;;;;;;11.95;8.27;;;11.40;99.90;;;;;;4935394;29;20028;-80
2022/07/16 07:48:15;;;;;;;14.95;8.70;;;11.30;99.90;;;;;;4950344;28;20034;-79
2022/07/16 07:50:42;;;;;;;10.45;7.85;;;11.30;99.90;;;;;;4949526;28;20066;-77
2022/07/16 07:53:10;;;;;;;9.27;7.68;;;11.30;99.90;;;;;;4948565;28;20030;-81
2022/07/16 07:55:38;;;;;;;10.55;7.85;;;11.20;99.90;;;;;;4951838;28;20501;-79
2022/07/16 07:58:05;;;;;;;8.60;6.65;;;11.20;99.90;;;;;;4952084;29;20413;-79
2022/07/16 08:00:33;;;;;;;10.45;8.20;;;11.10;99.90;;;;;;4949858;28;20043;-81
2022/07/16 08:03:00;;;;;;;10.35;7.53;;;11.10;99.90;;;;;;4947572;28;20138;-80
2022/07/16 08:05:28;;;;;;;10.55;8.02;;;11.10;99.90;;;;;;4942086;29;20042;-79
2022/07/16 08:07:55;;;;;;;10.18;7.60;;;11.10;99.90;;;;;;4947014;28;20027;-79
2022/07/16 08:10:22;;;;;;;10.32;7.55;;;11.00;99.90;;;;;;4943518;29;20085;-79
2022/07/16 08:12:50;;;;;;;9.75;8.00;;;11.00;99.90;;;;;;4950295;28;20031;-81
2022/07/16 08:15:17;;;;;;;11.60;7.68;;;11.00;99.90;;;;;;4950830;28;20509;-79
2022/07/16 08:17:45;;;;;;;9.60;6.82;;;11.00;99.90;;;;;;4946116;28;20908;-79
2022/07/16 08:20:16;;;;;;;13.20;7.43;;;11.00;99.90;;;;;;4950895;28;20062;-78
2022/07/16 08:22:44;;;;;;;8.18;6.57;;;10.90;99.90;;;;;;4944167;28;20039;-79
2022/07/16 08:27:57;;;;;;;11.93;7.18;;;10.80;99.90;;;;;;4944366;28;20390;-77
2022/07/16 08:30:24;;;;;;;13.40;9.55;;;10.80;99.90;;;;;;4945734;28;20418;-80
2022/07/16 08:32:53;;;;;;;11.93;8.77;;;10.70;99.90;;;;;;4946477;29;20110;-78
2022/07/16 08:35:20;;;;;;;12.93;9.20;;;10.70;99.90;;;;;;4951020;28;20043;-78
2022/07/16 08:37:49;;;;;;;11.98;8.30;;;10.70;99.90;;;;;;4949327;28;20031;-78
2022/07/16 08:40:21;;;;;;;9.20;7.70;;;10.70;99.90;;;;;;4945031;28;20035;-79
2022/07/16 08:42:50;;;;;;;10.55;8.80;;;10.70;99.90;;;;;;4950622;29;20030;-77
2022/07/16 08:45:22;;;;;;;16.17;9.35;;;10.70;99.90;;;;;;4941688;28;20069;-78
2022/07/16 08:47:52;;;;;;;12.60;9.10;;;10.60;99.90;;;;;;4943883;28;20386;-79
2022/07/16 08:50:20;;;;;;;14.13;9.93;;;10.60;99.90;;;;;;4944328;29;20082;-76
2022/07/16 08:52:53;;;;;;;19.83;12.65;;;10.60;99.90;;;;;;4942032;29;20036;-77
2022/07/16 08:55:25;;;;;;;18.75;13.20;;;10.60;99.90;;;;;;4943879;29;20077;-79
2022/07/16 08:57:53;;;;;;;22.33;15.52;;;10.60;99.90;;;;;;4946187;29;20222;-79
2022/07/16 09:00:21;;;;;;;23.90;16.65;;;10.60;99.90;;;;;;4952195;29;20498;-78
2022/07/16 09:02:49;;;;;;;29.10;17.88;;;10.60;99.90;;;;;;4936456;29;20071;-77
2022/07/16 09:05:17;;;;;;;29.67;18.77;;;10.50;99.90;;;;;;4949557;29;20037;-79
2022/07/16 09:07:45;;;;;;;34.70;20.60;;;10.50;99.90;;;;;;4949783;29;20054;-79
2022/07/16 09:10:12;;;;;;;37.03;21.40;;;10.50;99.90;;;;;;4952609;29;20549;-80
2022/07/16 09:12:48;;;;;;;32.53;21.00;;;10.40;99.90;;;;;;4949646;29;20050;-79
2022/07/16 09:15:32;;;;;;;29.40;19.90;;;10.40;99.90;;;;;;4952451;29;20465;-79
2022/07/16 09:18:22;;;;;;;35.72;22.10;;;10.30;99.90;;;;;;4939343;29;20091;-80
2022/07/16 09:20:55;;;;;;;32.15;19.85;;;10.30;99.90;;;;;;4933501;29;20359;-79
2022/07/16 09:23:28;;;;;;;27.73;19.40;;;10.20;99.90;;;;;;4951974;29;20031;-78
2022/07/16 09:26:04;;;;;;;26.52;17.45;;;10.20;99.90;;;;;;4949983;29;20046;-78
2022/07/16 09:28:43;;;;;;;25.25;17.13;;;10.10;99.90;;;;;;4949564;29;20028;-79
2022/07/16 09:31:33;;;;;;;22.90;15.75;;;10.00;99.90;;;;;;4939008;29;20062;-77
2022/07/16 09:34:16;;;;;;;23.88;14.15;;;10.00;99.90;;;;;;4951181;29;20105;-78
2022/07/16 09:37:04;;;;;;;20.65;13.57;;;10.10;99.90;;;;;;4949142;29;20043;-80
2022/07/16 09:39:34;;;;;;;20.75;14.68;;;10.10;99.90;;;;;;4951648;29;20038;-78
2022/07/16 09:42:02;;;;;;;21.70;13.52;;;10.10;99.90;;;;;;4950683;29;20114;-80
2022/07/16 09:44:34;;;;;;;22.08;13.25;;;10.10;99.90;;;;;;4952359;29;20075;-80
2022/07/16 09:47:08;;;;;;;20.95;13.40;;;10.30;99.90;;;;;;4949793;28;20093;-79
2022/07/16 09:49:40;;;;;;;19.85;12.63;;;10.30;99.90;;;;;;4944772;29;20028;-80
2022/07/16 09:52:26;;;;;;;18.70;11.63;;;10.30;99.90;;;;;;4944588;29;20038;-79
2022/07/16 09:54:57;;;;;;;16.00;10.82;;;10.40;99.90;;;;;;4953457;29;20243;-79
2022/07/16 09:57:27;;;;;;;14.70;9.45;;;10.40;99.90;;;;;;4951844;29;20418;-81
2022/07/16 09:59:55;;;;;;;12.93;9.38;;;10.40;99.90;;;;;;4952952;29;20055;-80
2022/07/16 10:02:23;;;;;;;14.07;9.27;;;10.50;99.90;;;;;;4951599;28;20066;-79
2022/07/16 10:04:52;;;;;;;14.77;10.00;;;10.50;99.90;;;;;;4948678;29;20035;-78
2022/07/16 10:07:19;;;;;;;18.75;10.88;;;10.50;99.90;;;;;;4951419;29;20035;-79
2022/07/16 10:09:47;;;;;;;14.18;9.30;;;10.50;99.90;;;;;;4948863;29;20027;-79
2022/07/16 10:12:17;;;;;;;14.68;8.75;;;10.50;99.90;;;;;;4950415;29;20031;-80
2022/07/16 10:14:47;;;;;;;14.52;7.75;;;10.50;99.90;;;;;;4952566;28;20074;-79
2022/07/16 10:17:30;;;;;;;13.90;8.07;;;10.50;99.90;;;;;;4944754;29;20032;-79
2022/07/16 10:20:00;;;;;;;12.13;8.07;;;10.50;99.90;;;;;;4946732;29;20085;-80
2022/07/16 10:22:32;;;;;;;9.70;7.00;;;10.40;99.90;;;;;;4948865;28;20027;-80
2022/07/16 10:25:00;;;;;;;11.30;6.65;;;10.40;99.90;;;;;;4951851;28;20063;-80
2022/07/16 10:27:34;;;;;;;13.57;8.30;;;10.30;99.90;;;;;;4950078;29;20367;-79
2022/07/16 10:30:16;;;;;;;8.93;5.03;;;10.30;99.90;;;;;;4951823;28;20402;-82
2022/07/16 10:33:06;;;;;;;8.43;4.80;;;10.30;99.90;;;;;;4940630;29;20020;-79
2022/07/16 10:35:45;;;;;;;8.02;4.20;;;10.40;99.90;;;;;;4954547;29;20051;-79
2022/07/16 10:38:17;;;;;;;6.45;4.90;;;10.40;99.90;;;;;;4943276;29;20035;-79
2022/07/16 10:40:47;;;;;;;5.85;4.13;;;10.40;99.90;;;;;;4953627;29;20035;-80
2022/07/16 10:43:22;;;;;;;5.75;3.75;;;10.50;99.90;;;;;;4947457;29;20035;-82
2022/07/16 10:45:58;;;;;;;6.88;3.30;;;10.50;99.90;;;;;;4951024;28;20546;-79
2022/07/16 10:48:38;;;;;;;3.55;2.45;;;10.60;99.90;;;;;;4950984;29;21911;-79
2022/07/16 10:51:21;;;;;;;6.88;2.85;;;10.80;99.90;;;;;;4954322;29;20031;-81
2022/07/16 10:54:15;;;;;;;5.32;3.45;;;10.90;99.90;;;;;;4965649;29;20031;-80
2022/07/16 10:56:48;;;;;;;5.68;3.30;;;11.00;99.90;;;;;;4940797;29;20043;-78
2022/07/16 10:59:19;;;;;;;4.78;2.72;;;11.20;99.90;;;;;;4948101;29;20094;-79
2022/07/16 11:01:51;;;;;;;4.50;2.95;;;11.30;99.70;;;;;;4946272;29;20359;-81
2022/07/16 11:04:31;;;;;;;5.88;2.95;;;11.30;99.70;;;;;;4950772;29;20050;-81
2022/07/16 11:07:00;;;;;;;5.07;2.40;;;11.40;99.40;;;;;;4945899;29;20067;-78
2022/07/16 11:09:36;;;;;;;5.50;3.05;;;11.40;99.30;;;;;;4945429;29;22113;-78
2022/07/16 11:12:08;;;;;;;;;;;11.40;99.40;;;;;;4950742;29;20035;-78
2022/07/16 11:14:37;;;;;;;5.68;3.13;;;11.30;99.50;;;;;;4952631;29;19944;-78
2022/07/16 11:17:05;;;;;;;4.63;3.25;;;11.30;99.40;;;;;;4952451;28;20058;-80
2022/07/16 11:19:37;;;;;;;5.40;3.25;;;11.30;99.50;;;;;;4953624;28;20475;-79
2022/07/16 11:22:05;;;;;;;4.90;3.60;;;11.30;99.60;;;;;;4952015;29;20042;-81
2022/07/16 11:24:33;;;;;;;4.25;2.85;;;11.20;99.60;;;;;;4954602;29;20031;-81
2022/07/16 11:27:02;;;;;;;7.03;3.03;;;11.20;99.70;;;;;;4940406;28;20114;-82
2022/07/16 11:29:30;;;;;;;5.95;3.22;;;11.10;99.70;;;;;;4943292;29;20394;-77
2022/07/16 11:31:59;;;;;;;5.55;3.28;;;11.10;99.70;;;;;;4944941;29;20039;-83
2022/07/16 11:34:31;;;;;;;5.72;2.55;;;11.00;99.70;;;;;;4944433;29;20147;-82
2022/07/16 11:36:59;;;;;;;6.32;3.28;;;11.10;99.60;;;;;;4944021;28;20498;-76
2022/07/16 11:39:28;;;;;;;6.68;3.15;;;11.00;99.60;;;;;;4951424;28;20038;-85
2022/07/16 11:41:58;;;;;;;5.55;3.75;;;11.00;99.80;;;;;;4947445;28;20430;-78
2022/07/16 11:44:29;;;;;;;5.90;3.45;;;10.90;99.80;;;;;;4950874;29;20393;-79
2022/07/16 11:47:02;;;;;;;8.18;3.67;;;10.90;99.80;;;;;;4941258;28;20039;-78
2022/07/16 11:49:38;;;;;;;6.28;2.70;;;10.90;99.80;;;;;;4942196;28;20023;-78
2022/07/16 11:52:06;;;;;;;;;;;10.80;99.90;;;;;;4941687;28;20019;-80
2022/07/16 11:54:39;;;;;;;3.75;1.80;;;10.70;99.90;;;;;;4943526;29;19962;-79
2022/07/16 11:57:09;;;;;;;3.15;1.67;;;10.70;99.50;;;;;;4935594;29;20118;-81
2022/07/16 11:59:47;;;;;;;4.28;1.75;;;10.70;99.40;;;;;;4940505;29;20031;-80
2022/07/16 12:02:26;;;;;;;2.60;1.88;;;10.80;99.20;;;;;;4946391;28;20143;-79
2022/07/16 12:04:56;;;;;;;8.93;2.13;;;10.80;99.20;;;;;;4950105;28;20474;-79
2022/07/16 12:07:27;;;;;;;6.40;3.08;;;10.80;99.20;;;;;;4943144;29;20051;-76
2022/07/16 12:09:57;;;;;;;5.68;2.00;;;10.80;99.10;;;;;;4947701;28;20191;-79
2022/07/16 12:12:26;;;;;;;6.40;1.98;;;10.70;99.20;;;;;;4948514;28;20116;-79
2022/07/16 12:15:06;;;;;;;4.20;2.10;;;10.70;99.30;;;;;;4950778;28;20042;-80
2022/07/16 12:17:36;;;;;;;2.85;1.17;;;10.70;99.40;;;;;;4949950;29;20121;-80
2022/07/16 12:20:12;;;;;;;2.08;1.00;;;10.60;99.50;;;;;;4946404;29;20030;-81
2022/07/16 12:22:49;;;;;;;2.88;1.75;;;10.50;99.60;;;;;;4931166;29;20038;-78
2022/07/16 12:25:20;;;;;;;2.55;1.48;;;10.50;99.60;;;;;;4953260;29;20042;-85
2022/07/16 12:27:53;;;;;;;2.45;1.42;;;10.40;99.40;;;;;;4949495;28;20035;-81
2022/07/16 12:30:41;;;;;;;3.40;1.13;;;10.50;99.00;;;;;;4951520;28;20031;-77
2022/07/16 12:33:23;;;;;;;2.00;1.48;;;10.70;98.90;;;;;;4942364;28;20063;-79
2022/07/16 12:36:04;;;;;;;2.45;1.30;;;10.70;99.10;;;;;;4946627;28;20042;-79
2022/07/16 12:38:49;;;;;;;1.13;0.73;;;10.70;99.00;;;;;;4936282;28;20031;-80
2022/07/16 12:41:25;;;;;;;2.97;0.98;;;10.60;99.00;;;;;;4951162;29;20122;-80
2022/07/16 12:44:04;;;;;;;3.70;1.10;;;10.50;99.30;;;;;;4953498;29;20031;-81
2022/07/16 12:46:34;;;;;;;3.30;0.93;;;10.40;99.20;;;;;;4950144;28;20027;-78
2022/07/16 12:49:04;;;;;;;1.95;1.10;;;10.40;99.30;;;;;;4950240;28;20533;-82
2022/07/16 12:51:38;;;;;;;2.40;0.90;;;10.30;99.40;;;;;;4949219;29;20055;-81
2022/07/16 12:54:07;;;;;;;0.98;0.77;;;10.10;99.70;;;;;;4943792;28;20229;-79
2022/07/16 12:59:22;;;;;;;1.43;0.80;;;9.90;99.70;;;;;;4937949;29;20034;-79
2022/07/16 13:01:49;;;;;;;1.65;0.80;;;9.70;99.90;;;;;;4947136;28;20516;-80
2022/07/16 13:04:17;;;;;;;0.82;0.50;;;9.50;99.90;;;;;;4951121;29;20182;-81